createdAt,value
2017-10-03T00:00:24.269Z,3.37
2017-10-03T00:02:53.329Z,4.20
2017-10-03T00:05:21.573Z,3.77
2017-10-03T00:07:49.815Z,3.97
2017-10-03T00:10:18.754Z,3.57
2017-10-03T00:12:46.994Z,4.03
2017-10-03T00:15:16.006Z,4.07
2017-10-03T00:17:44.273Z,3.30
2017-10-03T00:20:12.525Z,4.00
2017-10-03T00:22:41.534Z,3.73
2017-10-03T00:25:10.573Z,3.67
2017-10-03T00:27:38.821Z,3.10
2017-10-03T00:30:07.054Z,3.73
2017-10-03T00:32:35.706Z,3.27
2017-10-03T00:35:03.942Z,3.40
2017-10-03T00:37:32.941Z,4.10
2017-10-03T00:40:01.439Z,3.60
2017-10-03T00:42:29.681Z,3.40
2017-10-03T00:44:57.920Z,3.30
2017-10-03T00:47:26.420Z,2.80
2017-10-03T00:49:54.657Z,3.93
2017-10-03T00:52:22.898Z,3.30
2017-10-03T00:54:51.417Z,2.47
2017-10-03T00:57:19.657Z,3.27
2017-10-03T00:59:48.661Z,3.80
2017-10-03T01:02:16.925Z,2.90
2017-10-03T01:04:45.935Z,3.83
2017-10-03T01:07:14.173Z,3.63
2017-10-03T01:09:42.445Z,4.37
2017-10-03T01:12:10.690Z,6.03
2017-10-03T01:14:38.947Z,4.60
2017-10-03T01:17:07.273Z,4.83
2017-10-03T01:19:35.521Z,4.30
2017-10-03T01:22:03.765Z,4.67
2017-10-03T01:24:32.034Z,4.70
2017-10-03T01:27:01.046Z,6.50
2017-10-03T01:29:29.302Z,5.40
2017-10-03T01:31:58.328Z,5.67
2017-10-03T01:34:26.569Z,6.27
2017-10-03T01:36:54.808Z,2.53
2017-10-03T01:39:23.474Z,2.80
2017-10-03T01:41:52.081Z,2.53
2017-10-03T01:44:20.323Z,2.60
2017-10-03T01:46:48.593Z,2.70
2017-10-03T01:49:16.833Z,3.20
2017-10-03T01:51:45.080Z,2.33
2017-10-03T01:54:13.342Z,2.23
2017-10-03T01:56:41.578Z,2.23
2017-10-03T01:59:10.585Z,2.60
2017-10-03T02:01:38.903Z,2.60
2017-10-03T02:04:07.141Z,3.30
2017-10-03T02:06:35.385Z,3.23
2017-10-03T02:09:03.649Z,2.73
2017-10-03T02:11:31.889Z,2.60
2017-10-03T02:14:00.157Z,2.80
2017-10-03T02:16:29.169Z,2.57
2017-10-03T02:18:57.409Z,2.90
2017-10-03T02:21:25.649Z,2.97
2017-10-03T02:23:54.301Z,2.70
2017-10-03T02:26:22.538Z,2.60
2017-10-03T02:28:51.545Z,3.40
2017-10-03T02:31:19.814Z,2.70
2017-10-03T02:33:48.822Z,2.80
2017-10-03T02:36:17.062Z,2.00
2017-10-03T02:38:45.330Z,1.80
2017-10-03T02:41:13.573Z,1.93
2017-10-03T02:43:41.995Z,1.87
2017-10-03T02:46:10.314Z,1.70
2017-10-03T02:48:38.554Z,1.73
2017-10-03T02:51:06.795Z,2.20
2017-10-03T02:53:35.057Z,1.50
2017-10-03T02:56:03.303Z,1.70
2017-10-03T02:58:31.547Z,2.10
2017-10-03T03:00:59.808Z,1.73
2017-10-03T03:03:28.045Z,1.97
2017-10-03T03:05:56.409Z,1.37
2017-10-03T03:08:26.050Z,1.57
2017-10-03T03:10:54.293Z,2.30
2017-10-03T03:13:23.297Z,1.93
2017-10-03T03:15:51.574Z,1.37
2017-10-03T03:18:19.814Z,1.70
2017-10-03T03:20:48.055Z,1.70
2017-10-03T03:23:16.312Z,1.43
2017-10-03T03:25:44.597Z,1.47
2017-10-03T03:28:12.832Z,1.50
2017-10-03T03:30:41.377Z,1.77
2017-10-03T03:33:09.622Z,2.03
2017-10-03T03:35:37.867Z,1.83
2017-10-03T03:38:06.897Z,1.80
2017-10-03T03:40:35.142Z,1.03
2017-10-03T03:43:04.162Z,1.80
2017-10-03T03:45:32.641Z,1.67
2017-10-03T03:48:00.885Z,2.20
2017-10-03T03:50:29.165Z,1.93
2017-10-03T03:52:57.796Z,2.47
2017-10-03T03:55:26.033Z,1.93
2017-10-03T03:57:55.045Z,1.97
2017-10-03T04:00:23.317Z,2.20
2017-10-03T04:02:51.556Z,2.10
2017-10-03T04:05:19.816Z,2.47
2017-10-03T04:07:48.057Z,2.47
2017-10-03T04:10:16.296Z,2.20
2017-10-03T04:12:44.542Z,2.20
2017-10-03T04:15:13.033Z,2.07
2017-10-03T04:17:41.279Z,2.30
2017-10-03T04:20:09.526Z,2.13
2017-10-03T04:22:38.548Z,2.10
2017-10-03T04:25:06.814Z,2.10
2017-10-03T04:27:35.056Z,2.27
2017-10-03T04:30:04.357Z,2.90
2017-10-03T04:32:33.361Z,2.43
2017-10-03T04:35:02.378Z,2.10
2017-10-03T04:37:30.999Z,2.40
2017-10-03T04:39:59.238Z,1.90
2017-10-03T04:42:27.476Z,2.13
2017-10-03T04:44:56.505Z,2.53
2017-10-03T04:47:24.925Z,2.67
2017-10-03T04:49:53.175Z,2.40
2017-10-03T04:52:21.425Z,2.20
2017-10-03T04:54:49.682Z,2.30
2017-10-03T04:57:18.685Z,2.20
2017-10-03T04:59:48.021Z,2.77
2017-10-03T05:02:16.286Z,2.20
2017-10-03T05:04:44.530Z,2.70
2017-10-03T05:07:12.982Z,2.53
2017-10-03T05:09:42.381Z,2.23
2017-10-03T05:12:10.618Z,1.90
2017-10-03T05:14:38.893Z,2.80
2017-10-03T05:17:07.137Z,2.97
2017-10-03T05:19:35.386Z,2.40
2017-10-03T05:22:03.726Z,3.10
2017-10-03T05:24:31.974Z,2.00
2017-10-03T05:27:00.217Z,2.10
2017-10-03T05:29:28.530Z,2.27
2017-10-03T05:31:57.530Z,2.53
2017-10-03T05:34:26.548Z,3.03
2017-10-03T05:36:54.806Z,2.40
2017-10-03T05:39:23.817Z,2.43
2017-10-03T05:41:52.061Z,2.27
2017-10-03T05:44:20.583Z,2.20
2017-10-03T05:46:48.833Z,2.73
2017-10-03T05:49:18.197Z,2.60
2017-10-03T05:51:46.449Z,2.70
2017-10-03T05:54:14.685Z,2.33
2017-10-03T05:56:43.701Z,3.10
2017-10-03T05:59:11.962Z,2.87
2017-10-03T06:01:40.323Z,3.00
2017-10-03T06:04:08.545Z,2.60
2017-10-03T06:06:37.650Z,2.83
2017-10-03T06:09:05.886Z,3.30
2017-10-03T06:11:34.123Z,2.73
2017-10-03T06:14:02.395Z,2.53
2017-10-03T06:16:30.637Z,3.20
2017-10-03T06:18:58.885Z,3.00
2017-10-03T06:21:27.926Z,3.30
2017-10-03T06:23:56.176Z,3.30
2017-10-03T06:26:24.426Z,2.37
2017-10-03T06:28:53.368Z,2.87
2017-10-03T06:31:21.621Z,2.17
2017-10-03T06:33:49.866Z,2.13
2017-10-03T06:36:18.126Z,1.60
2017-10-03T06:38:46.366Z,1.60
2017-10-03T06:41:14.605Z,1.97
2017-10-03T06:43:43.638Z,1.70
2017-10-03T06:46:11.873Z,1.80
2017-10-03T06:48:40.119Z,2.33
2017-10-03T06:51:09.094Z,1.60
2017-10-03T06:53:37.333Z,1.70
2017-10-03T06:56:05.765Z,2.10
2017-10-03T06:58:34.027Z,2.70
2017-10-03T07:01:02.277Z,1.97
2017-10-03T07:03:30.519Z,2.47
2017-10-03T07:05:58.799Z,1.73
2017-10-03T07:08:27.826Z,2.10
2017-10-03T07:10:56.069Z,1.90
2017-10-03T07:13:25.273Z,1.73
2017-10-03T07:15:53.523Z,2.10
2017-10-03T07:18:21.826Z,2.50
2017-10-03T07:20:50.859Z,2.30
2017-10-03T07:23:19.101Z,2.50
2017-10-03T07:25:48.117Z,1.87
2017-10-03T07:28:16.365Z,3.10
2017-10-03T07:30:44.605Z,2.57
2017-10-03T07:33:12.850Z,2.07
2017-10-03T07:35:41.764Z,2.50
2017-10-03T07:38:09.993Z,2.00
2017-10-03T07:40:39.006Z,2.30
2017-10-03T07:43:07.278Z,2.00
2017-10-03T07:45:35.525Z,2.30
2017-10-03T07:48:03.829Z,2.50
2017-10-03T07:50:32.837Z,2.00
2017-10-03T07:53:01.290Z,2.47
2017-10-03T07:55:30.307Z,3.33
2017-10-03T07:57:58.629Z,2.20
2017-10-03T08:00:26.905Z,2.47
2017-10-03T08:02:55.154Z,2.53
2017-10-03T08:05:23.418Z,2.70
2017-10-03T08:07:51.662Z,3.40
2017-10-03T08:10:19.909Z,3.87
2017-10-03T08:12:48.171Z,3.40
2017-10-03T08:15:16.419Z,2.43
2017-10-03T08:17:44.662Z,3.00
2017-10-03T08:20:13.497Z,2.43
2017-10-03T08:22:41.733Z,2.93
2017-10-03T08:25:10.752Z,3.50
2017-10-03T08:27:39.961Z,2.70
2017-10-03T08:30:08.226Z,2.10
2017-10-03T08:32:36.481Z,2.90
2017-10-03T08:35:05.517Z,3.57
2017-10-03T08:37:33.929Z,2.23
2017-10-03T08:40:02.176Z,2.97
2017-10-03T08:42:30.498Z,2.63
2017-10-03T08:44:58.755Z,1.90
2017-10-03T08:47:27.001Z,2.63
2017-10-03T08:49:55.270Z,2.10
2017-10-03T08:52:25.745Z,2.00
2017-10-03T08:54:53.999Z,1.93
2017-10-03T08:57:22.258Z,2.50
2017-10-03T08:59:50.501Z,1.83
2017-10-03T09:02:21.719Z,2.07
2017-10-03T09:04:50.046Z,2.13
2017-10-03T09:07:18.301Z,2.30
2017-10-03T09:09:47.313Z,1.60
2017-10-03T09:12:15.588Z,1.50
2017-10-03T09:14:43.848Z,1.80
2017-10-03T09:17:12.857Z,1.97
2017-10-03T09:19:41.130Z,2.30
2017-10-03T09:22:09.374Z,1.80
2017-10-03T09:24:37.631Z,2.40
2017-10-03T09:27:05.959Z,2.10
2017-10-03T09:29:34.250Z,2.57
2017-10-03T09:32:02.482Z,1.60
2017-10-03T09:34:30.752Z,1.80
2017-10-03T09:36:59.002Z,1.73
2017-10-03T09:39:27.397Z,1.80
2017-10-03T09:41:55.678Z,2.20
2017-10-03T09:44:23.930Z,2.10
2017-10-03T09:46:52.906Z,2.03
2017-10-03T09:49:21.238Z,2.27
2017-10-03T09:51:49.478Z,2.27
2017-10-03T09:54:18.282Z,2.10
2017-10-03T09:56:46.554Z,2.80
2017-10-03T09:59:14.801Z,1.97
2017-10-03T10:01:43.040Z,2.63
2017-10-03T10:04:11.323Z,1.70
2017-10-03T10:06:39.561Z,1.90
2017-10-03T10:09:07.801Z,2.80
2017-10-03T10:11:36.125Z,2.50
2017-10-03T10:14:04.397Z,2.30
2017-10-03T10:16:32.650Z,2.20
2017-10-03T10:19:00.925Z,2.43
2017-10-03T10:21:29.233Z,2.23
2017-10-03T10:23:57.473Z,2.00
2017-10-03T10:26:25.737Z,2.00
2017-10-03T10:28:53.990Z,2.20
2017-10-03T10:31:25.218Z,2.97
2017-10-03T10:33:53.513Z,2.23
2017-10-03T10:36:21.777Z,2.20
2017-10-03T10:38:50.022Z,2.13
2017-10-03T10:41:18.301Z,2.30
2017-10-03T10:43:46.545Z,2.40
2017-10-03T10:46:14.781Z,2.40
2017-10-03T10:48:43.045Z,2.20
2017-10-03T10:51:11.285Z,2.03
2017-10-03T10:53:39.538Z,2.50
2017-10-03T10:56:08.174Z,2.20
2017-10-03T10:58:36.493Z,2.13
2017-10-03T11:01:05.506Z,2.70
2017-10-03T11:03:33.778Z,2.43
2017-10-03T11:06:02.742Z,2.30
2017-10-03T11:08:31.759Z,1.97
2017-10-03T11:11:00.228Z,2.03
2017-10-03T11:13:29.242Z,3.20
2017-10-03T11:15:57.553Z,3.20
2017-10-03T11:18:26.083Z,3.07
2017-10-03T11:20:55.149Z,2.80
2017-10-03T11:23:35.271Z,3.50
2017-10-03T11:26:03.522Z,3.30
2017-10-03T11:28:31.785Z,2.80
2017-10-03T11:31:00.833Z,3.03
2017-10-03T11:33:29.110Z,2.57
2017-10-03T11:35:57.333Z,3.63
2017-10-03T11:38:25.957Z,3.50
2017-10-03T11:40:54.218Z,3.83
2017-10-03T11:43:22.516Z,3.20
2017-10-03T11:45:52.106Z,4.00
2017-10-03T11:48:20.337Z,2.90
2017-10-03T11:50:48.580Z,3.60
2017-10-03T11:53:16.846Z,3.27
2017-10-03T11:55:47.495Z,3.27
2017-10-03T11:58:15.714Z,3.33
2017-10-03T12:00:45.053Z,3.07
2017-10-03T12:03:14.141Z,3.37
2017-10-03T12:05:42.385Z,3.10
2017-10-03T12:08:11.409Z,3.17
2017-10-03T12:10:39.657Z,2.97
2017-10-03T12:13:07.897Z,3.80
2017-10-03T12:15:36.159Z,3.67
2017-10-03T12:18:04.546Z,3.63
2017-10-03T12:20:32.994Z,4.23
2017-10-03T12:23:01.321Z,3.57
2017-10-03T12:25:31.570Z,3.70
2017-10-03T12:27:59.869Z,4.10
2017-10-03T12:30:28.242Z,4.30
2017-10-03T12:32:56.812Z,4.23
2017-10-03T12:35:26.059Z,3.60
2017-10-03T12:37:55.231Z,3.17
2017-10-03T12:40:23.689Z,3.23
2017-10-03T12:42:53.002Z,2.90
2017-10-03T12:45:22.348Z,3.40
2017-10-03T12:47:50.725Z,3.37
2017-10-03T12:50:18.978Z,3.00
2017-10-03T12:52:47.245Z,3.37
2017-10-03T12:55:15.493Z,3.03
2017-10-03T12:57:44.770Z,2.93
2017-10-03T13:00:13.037Z,3.57
2017-10-03T13:02:41.288Z,2.70
2017-10-03T13:05:09.530Z,3.00
2017-10-03T13:07:38.049Z,3.20
2017-10-03T13:10:06.318Z,3.63
2017-10-03T13:12:34.584Z,2.90
2017-10-03T13:15:02.851Z,2.70
2017-10-03T13:17:31.097Z,3.30
2017-10-03T13:19:59.342Z,2.87
2017-10-03T13:22:27.609Z,3.20
2017-10-03T13:24:55.847Z,2.43
2017-10-03T13:27:24.081Z,3.13
2017-10-03T13:29:53.158Z,3.43
2017-10-03T13:32:21.399Z,2.90
2017-10-03T13:34:49.641Z,2.63
2017-10-03T13:37:17.910Z,3.13
2017-10-03T13:39:46.157Z,2.90
2017-10-03T13:42:14.399Z,3.30
2017-10-03T13:44:43.457Z,3.63
2017-10-03T13:47:11.707Z,3.23
2017-10-03T13:49:39.953Z,3.77
2017-10-03T13:52:08.537Z,3.70
2017-10-03T13:54:36.870Z,3.27
2017-10-03T13:57:05.113Z,2.67
2017-10-03T13:59:33.385Z,2.73
2017-10-03T14:02:01.622Z,2.40
2017-10-03T14:04:29.970Z,2.67
2017-10-03T14:06:58.354Z,2.30
2017-10-03T14:09:26.607Z,2.83
2017-10-03T14:11:54.849Z,3.00
2017-10-03T14:14:23.369Z,2.80
2017-10-03T14:16:51.609Z,2.67
2017-10-03T14:19:19.867Z,1.87
2017-10-03T14:21:48.913Z,2.50
2017-10-03T14:24:17.161Z,3.17
2017-10-03T14:26:49.169Z,1.60
2017-10-03T14:29:18.678Z,2.40
2017-10-03T14:31:46.954Z,2.77
2017-10-03T14:34:15.173Z,2.90
2017-10-03T14:36:44.010Z,2.30
2017-10-03T14:39:12.253Z,2.03
2017-10-03T14:41:40.502Z,2.30
2017-10-03T14:44:08.783Z,2.03
2017-10-03T14:46:38.253Z,1.80
2017-10-03T14:49:06.485Z,2.17
2017-10-03T14:51:34.765Z,1.73
2017-10-03T14:54:04.116Z,2.10
2017-10-03T14:56:32.485Z,2.47
2017-10-03T14:59:00.969Z,2.10
2017-10-03T15:01:29.194Z,2.17
2017-10-03T15:03:57.626Z,2.00
2017-10-03T15:06:25.902Z,2.67
2017-10-03T15:08:54.140Z,2.47
2017-10-03T15:11:22.393Z,2.17
2017-10-03T15:13:51.435Z,2.43
2017-10-03T15:16:19.677Z,2.43
2017-10-03T15:18:47.939Z,2.50
2017-10-03T15:21:17.517Z,1.97
2017-10-03T15:23:45.763Z,1.80
2017-10-03T15:26:14.012Z,2.67
2017-10-03T15:28:42.274Z,2.37
2017-10-03T15:31:10.522Z,2.40
2017-10-03T15:33:38.793Z,2.53
2017-10-03T15:36:07.193Z,2.37
2017-10-03T15:38:36.197Z,2.23
2017-10-03T15:41:05.214Z,2.10
2017-10-03T15:43:33.916Z,1.93
2017-10-03T15:46:02.169Z,1.80
2017-10-03T15:48:30.842Z,2.33
2017-10-03T15:50:59.086Z,3.13
2017-10-03T15:53:27.333Z,2.67
2017-10-03T15:55:55.660Z,2.90
2017-10-03T15:58:23.918Z,2.40
2017-10-03T16:00:52.157Z,2.70
2017-10-03T16:03:20.402Z,2.37
2017-10-03T16:05:49.865Z,2.37
2017-10-03T16:08:18.258Z,2.70
2017-10-03T16:10:46.504Z,3.33
2017-10-03T16:13:14.792Z,3.77
2017-10-03T16:15:43.073Z,2.53
2017-10-03T16:18:12.386Z,3.20
2017-10-03T16:20:40.676Z,3.27
2017-10-03T16:23:10.062Z,2.80
2017-10-03T16:25:38.642Z,3.37
2017-10-03T16:28:07.213Z,3.37
2017-10-03T16:30:35.463Z,3.23
2017-10-03T16:33:03.893Z,3.57
2017-10-03T16:35:32.326Z,3.10
2017-10-03T16:38:00.842Z,3.10
2017-10-03T16:40:29.122Z,3.30
2017-10-03T16:42:57.429Z,2.83
2017-10-03T16:45:27.617Z,3.53
2017-10-03T16:47:58.235Z,4.20
2017-10-03T16:50:28.701Z,3.60
2017-10-03T16:52:56.930Z,3.03
2017-10-03T16:55:25.235Z,3.70
2017-10-03T16:57:53.459Z,3.53
2017-10-03T17:00:21.692Z,3.47
2017-10-03T17:02:50.103Z,3.20
2017-10-03T17:05:18.337Z,2.80
2017-10-03T17:07:47.639Z,3.20
2017-10-03T17:10:16.002Z,4.80
2017-10-03T17:12:44.246Z,3.70
2017-10-03T17:15:12.629Z,3.40
2017-10-03T17:17:40.881Z,4.17
2017-10-03T17:20:09.895Z,4.50
2017-10-03T17:22:38.902Z,4.33
2017-10-03T17:25:07.601Z,4.23
2017-10-03T17:27:35.841Z,3.77
2017-10-03T17:30:04.089Z,4.10
2017-10-03T17:32:32.741Z,4.37
2017-10-03T17:35:00.978Z,4.23
2017-10-03T17:37:29.993Z,4.30
2017-10-03T17:39:58.257Z,4.80
2017-10-03T17:42:26.510Z,4.90
2017-10-03T17:44:54.763Z,4.50
2017-10-03T17:47:23.017Z,5.00
2017-10-03T17:49:51.257Z,6.70
2017-10-03T17:52:19.498Z,4.37
2017-10-03T17:54:47.861Z,4.40
2017-10-03T17:57:16.105Z,4.60
2017-10-03T17:59:44.495Z,4.10
2017-10-03T18:02:12.741Z,4.10
2017-10-03T18:04:41.093Z,3.87
2017-10-03T18:07:09.373Z,3.37
2017-10-03T18:09:37.652Z,3.40
2017-10-03T18:12:05.894Z,3.20
2017-10-03T18:14:34.133Z,3.37
2017-10-03T18:17:02.612Z,3.47
2017-10-03T18:19:31.621Z,3.47
2017-10-03T18:21:59.866Z,3.40
2017-10-03T18:24:28.142Z,3.53
2017-10-03T18:26:56.385Z,3.93
2017-10-03T18:29:24.645Z,4.17
2017-10-03T18:34:27.486Z,3.90
2017-10-03T18:36:55.847Z,3.43
2017-10-03T18:39:24.085Z,5.00
2017-10-03T18:41:52.333Z,3.80
2017-10-03T18:44:20.606Z,3.70
2017-10-03T18:46:49.619Z,3.97
2017-10-03T18:49:17.858Z,4.07
2017-10-03T18:51:46.125Z,3.67
2017-10-03T18:54:14.380Z,3.80
2017-10-03T18:56:42.639Z,3.90
2017-10-03T18:59:11.237Z,4.83
2017-10-03T19:01:39.474Z,4.30
2017-10-03T19:04:08.485Z,3.90
2017-10-03T19:06:36.973Z,4.20
2017-10-03T19:09:05.214Z,4.90
2017-10-03T19:11:34.245Z,3.60
2017-10-03T19:14:02.516Z,3.97
2017-10-03T19:16:30.761Z,3.70
2017-10-03T19:18:59.777Z,4.63
2017-10-03T19:21:28.495Z,4.33
2017-10-03T19:23:56.738Z,3.90
2017-10-03T19:26:24.990Z,4.80
2017-10-03T19:28:53.257Z,4.20
2017-10-03T19:31:21.509Z,4.37
2017-10-03T19:33:49.753Z,4.43
2017-10-03T19:36:18.013Z,3.70
2017-10-03T19:38:46.258Z,4.60
2017-10-03T19:41:14.502Z,4.13
2017-10-03T19:43:43.149Z,4.33
2017-10-03T19:46:11.392Z,2.80
2017-10-03T19:48:39.634Z,3.83
2017-10-03T19:51:07.899Z,4.20
2017-10-03T19:53:36.170Z,3.20
2017-10-03T19:56:04.421Z,3.53
2017-10-03T19:58:33.456Z,4.13
2017-10-03T20:01:01.696Z,3.60
2017-10-03T20:03:29.930Z,3.27
2017-10-03T20:05:58.697Z,3.57
2017-10-03T20:08:27.076Z,4.50
2017-10-03T20:10:55.326Z,4.00
2017-10-03T20:13:23.593Z,3.30
2017-10-03T20:15:51.887Z,5.77
2017-10-03T20:18:20.882Z,3.90
2017-10-03T20:20:49.149Z,4.20
2017-10-03T20:23:17.402Z,4.30
2017-10-03T20:25:46.579Z,3.70
2017-10-03T20:28:15.033Z,3.57
2017-10-03T20:30:43.269Z,3.20
2017-10-03T20:33:12.281Z,3.60
2017-10-03T20:35:40.542Z,3.90
2017-10-03T20:38:08.794Z,3.67
2017-10-03T20:40:37.025Z,3.43
2017-10-03T20:43:05.302Z,4.10
2017-10-03T20:45:34.442Z,3.70
2017-10-03T20:48:02.682Z,3.73
2017-10-03T20:50:31.128Z,3.80
2017-10-03T20:52:59.369Z,3.63
2017-10-03T20:55:27.621Z,4.10
2017-10-03T20:57:55.889Z,3.70
2017-10-03T21:00:24.127Z,4.27
2017-10-03T21:02:53.137Z,3.83
2017-10-03T21:05:21.417Z,4.07
2017-10-03T21:07:49.657Z,3.00
2017-10-03T21:10:17.918Z,3.47
2017-10-03T21:12:48.013Z,4.17
2017-10-03T21:15:16.275Z,4.10
2017-10-03T21:17:44.515Z,4.97
2017-10-03T21:20:12.790Z,4.23
2017-10-03T21:22:41.035Z,4.53
2017-10-03T21:25:09.282Z,4.20
2017-10-03T21:27:37.537Z,4.13
2017-10-03T21:30:05.773Z,3.93
2017-10-03T21:32:34.019Z,4.50
2017-10-03T21:35:02.934Z,3.40
2017-10-03T21:37:31.153Z,3.53
2017-10-03T21:40:00.169Z,4.20
2017-10-03T21:42:40.138Z,4.50
2017-10-03T21:45:08.384Z,4.00
2017-10-03T21:47:36.630Z,3.93
2017-10-03T21:50:05.377Z,3.97
2017-10-03T21:52:33.619Z,4.00
2017-10-03T21:55:01.864Z,3.20
2017-10-03T21:57:30.130Z,3.83
2017-10-03T21:59:58.369Z,4.60
2017-10-03T22:02:26.613Z,4.30
2017-10-03T22:04:55.645Z,4.07
2017-10-03T22:07:23.889Z,4.37
2017-10-03T22:09:52.215Z,4.23
2017-10-03T22:12:21.090Z,3.93
2017-10-03T22:14:49.329Z,4.17
2017-10-03T22:17:18.344Z,3.97
2017-10-03T22:19:46.601Z,4.00
2017-10-03T22:22:14.851Z,3.53
2017-10-03T22:24:43.095Z,4.20
2017-10-03T22:27:11.361Z,5.13
2017-10-03T22:29:39.605Z,4.70
2017-10-03T22:32:08.613Z,4.60
2017-10-03T22:34:36.965Z,4.53
2017-10-03T22:37:05.210Z,4.33
2017-10-03T22:39:33.449Z,4.57
2017-10-03T22:42:01.725Z,3.93
2017-10-03T22:44:29.974Z,4.00
2017-10-03T22:46:58.982Z,4.80
2017-10-03T22:49:28.014Z,4.10
2017-10-03T22:52:02.021Z,4.03
2017-10-03T22:54:30.609Z,4.23
2017-10-03T22:56:58.878Z,3.83
2017-10-03T22:59:27.110Z,4.67
2017-10-03T23:01:55.389Z,5.33
2017-10-03T23:04:24.393Z,4.23
2017-10-03T23:06:53.401Z,4.40
2017-10-03T23:09:21.665Z,5.03
2017-10-03T23:11:49.905Z,4.47
2017-10-03T23:14:18.513Z,4.40
2017-10-03T23:16:47.729Z,4.93
2017-10-03T23:19:15.978Z,5.07
2017-10-03T23:21:44.225Z,4.50
2017-10-03T23:24:12.482Z,3.93
2017-10-03T23:26:40.726Z,4.53
2017-10-03T23:29:09.737Z,4.03
2017-10-03T23:31:38.009Z,4.10
2017-10-03T23:34:06.250Z,4.73
2017-10-03T23:36:34.489Z,3.90
2017-10-03T23:39:03.278Z,4.23
2017-10-03T23:41:31.522Z,3.97
2017-10-03T23:43:59.761Z,4.10
2017-10-03T23:46:28.022Z,4.60
2017-10-03T23:48:56.266Z,5.07
2017-10-03T23:51:24.513Z,4.77
2017-10-03T23:53:53.542Z,4.30
2017-10-03T23:56:21.784Z,5.37
2017-10-03T23:58:50.017Z,4.60
